Time;durP1;ratioP1;P1;durP2;ratioP2;P2;SDS_P1;SDS_P2;PMS_P1;PMS_P2;Temp;Humidity;BMP_temperature;BMP_pressure;BME280_temperature;BME280_humidity;BME280_pressure;Samples;Min_cycle;Max_cycle;Signal;HPM_P1;HPM_P2
2022/01/06 00:01:01;;;;;;;11.68;4.70;;;;;;;;;;4952259;28;20344;-72
2022/01/06 00:03:27;;;;;;;12.48;4.45;;;;;;;;;;4952556;28;20377;-72
2022/01/06 00:05:54;;;;;;;13.60;5.55;;;;;;;;;;4952244;28;20132;-72
2022/01/06 00:08:19;;;;;;;13.70;4.97;;;;;;;;;;4970176;28;20033;-72
2022/01/06 00:10:47;;;;;;;12.13;4.40;;;;;;;;;;4970057;28;20120;-72
2022/01/06 00:13:16;;;;;;;16.02;4.88;;;;;;;;;;4952722;28;20056;-72
2022/01/06 00:16:25;;;;;;;14.50;5.43;;;;;;;;;;4970337;28;20026;-72
2022/01/06 00:24:01;;;;;;;15.52;5.13;;;;;;;;;;4969545;28;20455;-72
2022/01/06 00:26:26;;;;;;;13.23;4.90;;;;;;;;;;4969606;28;20423;-72
2022/01/06 00:28:51;;;;;;;14.88;5.00;;;;;;;;;;4967992;28;20336;-72
2022/01/06 00:31:18;;;;;;;15.80;4.97;;;;;;;;;;4951670;28;20437;-72
2022/01/06 00:33:43;;;;;;;14.60;5.15;;;;;;;;;;4969505;28;20425;-73
2022/01/06 00:36:08;;;;;;;14.23;4.47;;;;;;;;;;4969108;28;20452;-72
2022/01/06 00:38:34;;;;;;;11.70;4.25;;;;;;;;;;4969699;28;20551;-73
2022/01/06 00:40:59;;;;;;;10.20;4.30;;;;;;;;;;4969295;28;20513;-72
2022/01/06 00:43:24;;;;;;;14.57;4.97;;;;;;;;;;4951710;28;20435;-72
2022/01/06 00:45:50;;;;;;;14.75;5.55;;;;;;;;;;4969128;28;20348;-74
2022/01/06 00:48:15;;;;;;;11.57;4.88;;;;;;;;;;4969102;28;20428;-72
2022/01/06 00:50:42;;;;;;;15.50;5.47;;;;;;;;;;4969677;28;20022;-72
2022/01/06 00:53:08;;;;;;;11.38;3.95;;;;;;;;;;4951242;28;20359;-72
2022/01/06 00:55:34;;;;;;;13.23;4.72;;;;;;;;;;4951406;28;20356;-72
2022/01/06 00:58:01;;;;;;;10.23;4.13;;;;;;;;;;4951238;28;20372;-72
2022/01/06 01:00:29;;;;;;;12.43;4.63;;;;;;;;;;4949953;28;20029;-73
2022/01/06 01:02:55;;;;;;;11.73;4.47;;;;;;;;;;4940242;28;20422;-72
2022/01/06 01:05:20;;;;;;;11.00;3.70;;;;;;;;;;4950188;28;20519;-72
2022/01/06 01:07:46;;;;;;;13.30;4.30;;;;;;;;;;4938593;28;20444;-72
2022/01/06 01:10:12;;;;;;;9.07;3.65;;;;;;;;;;4955789;28;20341;-72
2022/01/06 01:12:37;;;;;;;12.82;5.22;;;;;;;;;;4938880;28;20429;-72
2022/01/06 01:15:08;;;;;;;9.80;3.65;;;;;;;;;;4937922;28;20511;-72
2022/01/06 01:17:34;;;;;;;10.45;4.32;;;;;;;;;;4955804;28;20369;-72
2022/01/06 01:20:01;;;;;;;10.48;3.72;;;;;;;;;;4955714;28;20029;-72
2022/01/06 01:22:27;;;;;;;14.52;4.10;;;;;;;;;;4922062;28;20041;-72
2022/01/06 01:24:53;;;;;;;12.75;4.65;;;;;;;;;;4938387;28;20461;-72
2022/01/06 01:27:22;;;;;;;12.10;4.03;;;;;;;;;;4955723;28;20403;-72
2022/01/06 01:29:58;;;;;;;7.07;3.53;;;;;;;;;;4956272;28;20432;-72
2022/01/06 01:32:32;;;;;;;13.68;4.38;;;;;;;;;;4939880;28;20433;-72
2022/01/06 01:35:01;;;;;;;14.27;4.07;;;;;;;;;;4955812;28;20432;-72
2022/01/06 01:37:30;;;;;;;8.63;3.60;;;;;;;;;;4939124;28;20432;-72
2022/01/06 01:39:55;;;;;;;;;;;;;;;;;;4938217;28;20416;-72
2022/01/06 01:42:22;;;;;;;8.68;4.47;;;;;;;;;;4938473;28;20299;-72
2022/01/06 01:44:49;;;;;;;10.68;3.60;;;;;;;;;;4937645;28;20449;-72
2022/01/06 01:47:16;;;;;;;9.48;3.92;;;;;;;;;;4957247;28;20420;-72
2022/01/06 01:49:53;;;;;;;10.70;4.13;;;;;;;;;;4955787;28;20091;-72
2022/01/06 01:52:18;;;;;;;8.23;3.72;;;;;;;;;;4939745;28;20092;-73
2022/01/06 01:54:44;;;;;;;8.70;3.30;;;;;;;;;;4937958;28;20520;-72
2022/01/06 01:57:09;;;;;;;6.38;3.25;;;;;;;;;;4955154;28;20151;-73
2022/01/06 01:59:34;;;;;;;12.15;4.07;;;;;;;;;;4955911;28;20349;-73
2022/01/06 02:02:00;;;;;;;11.20;3.95;;;;;;;;;;4955330;28;20387;-72
2022/01/06 02:04:25;;;;;;;9.02;4.07;;;;;;;;;;4955366;28;20421;-72
2022/01/06 02:06:50;;;;;;;10.30;3.40;;;;;;;;;;4957129;28;20298;-72
2022/01/06 02:09:16;;;;;;;10.98;4.20;;;;;;;;;;4955426;28;20380;-72
2022/01/06 02:11:41;;;;;;;9.60;3.63;;;;;;;;;;4956213;28;20174;-72
2022/01/06 02:14:07;;;;;;;6.72;3.22;;;;;;;;;;4955318;28;20491;-72
2022/01/06 02:16:33;;;;;;;8.95;3.00;;;;;;;;;;4956368;28;20451;-72
2022/01/06 02:18:58;;;;;;;8.27;4.03;;;;;;;;;;4933963;28;20411;-72
2022/01/06 02:21:24;;;;;;;5.20;3.10;;;;;;;;;;4934659;28;20422;-72
2022/01/06 02:23:49;;;;;;;9.10;3.17;;;;;;;;;;4952011;28;20052;-72
2022/01/06 02:26:15;;;;;;;10.40;3.55;;;;;;;;;;4952445;28;20333;-72
2022/01/06 02:28:40;;;;;;;8.23;3.60;;;;;;;;;;4952032;28;20445;-72
2022/01/06 02:31:06;;;;;;;7.40;2.90;;;;;;;;;;4934959;28;20045;-72
2022/01/06 02:33:32;;;;;;;7.75;3.35;;;;;;;;;;4952328;28;20437;-72
2022/01/06 02:35:57;;;;;;;4.80;2.47;;;;;;;;;;4952123;28;20433;-72
2022/01/06 02:38:23;;;;;;;10.25;3.55;;;;;;;;;;4934986;28;20327;-72
2022/01/06 02:40:48;;;;;;;6.20;2.60;;;;;;;;;;4934692;28;20425;-72
2022/01/06 02:43:17;;;;;;;10.52;3.80;;;;;;;;;;4952226;28;20469;-72
2022/01/06 02:45:43;;;;;;;4.32;2.45;;;;;;;;;;4952098;28;20471;-72
2022/01/06 02:48:09;;;;;;;10.43;3.85;;;;;;;;;;4933984;28;20454;-72
2022/01/06 02:50:39;;;;;;;6.45;2.45;;;;;;;;;;4950135;28;20353;-72
2022/01/06 02:53:06;;;;;;;10.05;3.25;;;;;;;;;;4951547;28;20399;-72
2022/01/06 02:55:32;;;;;;;10.52;2.67;;;;;;;;;;4952033;28;20429;-72
2022/01/06 02:57:57;;;;;;;6.65;2.72;;;;;;;;;;4951091;28;20488;-72
2022/01/06 03:00:23;;;;;;;6.35;2.60;;;;;;;;;;4951948;28;20733;-72
2022/01/06 03:02:48;;;;;;;7.57;2.90;;;;;;;;;;4934896;28;20037;-72
2022/01/06 03:05:15;;;;;;;10.73;2.60;;;;;;;;;;4918549;28;20369;-72
2022/01/06 03:07:41;;;;;;;7.45;3.03;;;;;;;;;;4951998;28;20354;-72
2022/01/06 03:10:10;;;;;;;7.78;2.97;;;;;;;;;;4933755;28;20084;-72
2022/01/06 03:12:41;;;;;;;;;;;;;;;;;;4934672;28;20345;-72
2022/01/06 03:15:13;;;;;;;4.03;2.10;;;;;;;;;;4934827;28;20348;-72
2022/01/06 03:17:40;;;;;;;4.03;2.20;;;;;;;;;;4934203;28;20358;-72
2022/01/06 03:20:08;;;;;;;8.40;2.70;;;;;;;;;;4933415;28;20429;-72
2022/01/06 03:22:33;;;;;;;6.90;2.58;;;;;;;;;;4934401;28;20453;-72
2022/01/06 03:24:59;;;;;;;4.55;2.40;;;;;;;;;;4933413;28;20353;-72
2022/01/06 03:27:24;;;;;;;8.80;3.05;;;;;;;;;;4934031;28;20352;-73
2022/01/06 03:29:50;;;;;;;5.72;2.63;;;;;;;;;;4933069;28;20573;-72
2022/01/06 03:32:17;;;;;;;4.72;2.45;;;;;;;;;;4951349;28;20072;-72
2022/01/06 03:34:43;;;;;;;5.32;2.40;;;;;;;;;;4951105;28;20461;-72
2022/01/06 03:37:09;;;;;;;5.05;2.55;;;;;;;;;;4933316;28;20422;-72
2022/01/06 03:39:34;;;;;;;4.40;2.10;;;;;;;;;;4951363;28;20113;-72
2022/01/06 03:41:59;;;;;;;6.82;2.60;;;;;;;;;;4950776;28;20468;-72
2022/01/06 03:44:25;;;;;;;7.38;2.65;;;;;;;;;;4950643;28;20463;-72
2022/01/06 03:46:50;;;;;;;5.88;2.63;;;;;;;;;;4933686;28;20436;-72
2022/01/06 03:49:15;;;;;;;7.90;2.70;;;;;;;;;;4933369;28;20341;-72
2022/01/06 03:51:41;;;;;;;4.90;2.20;;;;;;;;;;4950871;28;20088;-72
2022/01/06 03:54:06;;;;;;;3.53;1.80;;;;;;;;;;4951860;28;20463;-72
2022/01/06 03:56:31;;;;;;;9.50;2.67;;;;;;;;;;4949978;28;20465;-72
2022/01/06 03:58:57;;;;;;;5.60;2.13;;;;;;;;;;4951100;28;20129;-72
2022/01/06 04:01:22;;;;;;;4.65;2.17;;;;;;;;;;4950896;28;20344;-72
2022/01/06 04:03:47;;;;;;;6.00;1.75;;;;;;;;;;4932776;28;20520;-72
2022/01/06 04:06:16;;;;;;;8.13;2.33;;;;;;;;;;4932705;28;20412;-72
2022/01/06 04:08:41;;;;;;;4.15;1.95;;;;;;;;;;4950239;28;20445;-72
2022/01/06 04:11:07;;;;;;;4.63;2.13;;;;;;;;;;4932912;28;20417;-72
2022/01/06 04:13:33;;;;;;;5.43;2.13;;;;;;;;;;4932567;28;20038;-72
2022/01/06 04:16:01;;;;;;;5.10;2.30;;;;;;;;;;4932879;28;20042;-72
2022/01/06 04:18:27;;;;;;;3.67;2.03;;;;;;;;;;4950236;28;20470;-72
2022/01/06 04:20:52;;;;;;;4.45;1.73;;;;;;;;;;4932732;28;20338;-72
2022/01/06 04:23:17;;;;;;;5.88;2.13;;;;;;;;;;4949990;28;20451;-72
2022/01/06 04:25:43;;;;;;;3.95;1.80;;;;;;;;;;4950214;28;20396;-72
2022/01/06 04:28:08;;;;;;;5.47;1.98;;;;;;;;;;4932723;28;20372;-72
2022/01/06 04:30:33;;;;;;;6.80;2.28;;;;;;;;;;4949933;28;20392;-72
2022/01/06 04:32:59;;;;;;;6.85;1.92;;;;;;;;;;4949740;28;20031;-73
2022/01/06 04:35:24;;;;;;;3.03;1.63;;;;;;;;;;4950191;28;20445;-72
2022/01/06 04:37:49;;;;;;;9.57;2.42;;;;;;;;;;4949774;28;20407;-72
2022/01/06 04:40:15;;;;;;;5.10;1.77;;;;;;;;;;4950099;28;20426;-72
2022/01/06 04:42:40;;;;;;;4.85;1.83;;;;;;;;;;4949254;28;20468;-72
2022/01/06 04:45:06;;;;;;;5.93;1.80;;;;;;;;;;4949832;28;20345;-72
2022/01/06 04:47:31;;;;;;;5.22;1.95;;;;;;;;;;4949906;28;20548;-73
2022/01/06 04:49:57;;;;;;;4.50;1.73;;;;;;;;;;4950375;28;20056;-72
2022/01/06 04:52:22;;;;;;;4.30;1.80;;;;;;;;;;4949719;28;20410;-72
2022/01/06 04:54:47;;;;;;;4.03;1.90;;;;;;;;;;4950664;28;20396;-72
2022/01/06 04:57:12;;;;;;;5.60;2.33;;;;;;;;;;4949184;28;20072;-72
2022/01/06 04:59:38;;;;;;;7.00;2.17;;;;;;;;;;4949986;28;20349;-72
2022/01/06 05:02:04;;;;;;;3.13;1.48;;;;;;;;;;4949451;28;20464;-72
2022/01/06 05:04:29;;;;;;;4.38;1.60;;;;;;;;;;4949853;28;20053;-72
2022/01/06 05:06:55;;;;;;;3.50;1.63;;;;;;;;;;4949526;28;20061;-73
2022/01/06 05:09:20;;;;;;;4.90;1.88;;;;;;;;;;4949423;28;20129;-72
2022/01/06 05:11:45;;;;;;;5.78;1.45;;;;;;;;;;4931527;28;20507;-72
2022/01/06 05:14:11;;;;;;;3.63;1.63;;;;;;;;;;4949574;28;20100;-72
2022/01/06 05:16:36;;;;;;;4.97;2.22;;;;;;;;;;4931822;28;20433;-72
2022/01/06 05:19:02;;;;;;;4.43;1.52;;;;;;;;;;4947853;28;20421;-72
2022/01/06 05:21:30;;;;;;;4.07;1.70;;;;;;;;;;4949326;28;20336;-72
2022/01/06 05:23:55;;;;;;;3.63;1.73;;;;;;;;;;4949571;28;20520;-72
2022/01/06 05:26:21;;;;;;;2.95;1.65;;;;;;;;;;4932059;28;20380;-72
2022/01/06 05:28:46;;;;;;;2.60;1.60;;;;;;;;;;4949591;28;20321;-72
2022/01/06 05:31:12;;;;;;;3.40;1.77;;;;;;;;;;4950076;28;20435;-72
2022/01/06 05:33:37;;;;;;;3.22;1.60;;;;;;;;;;4948664;28;20117;-72
2022/01/06 05:36:02;;;;;;;3.60;1.40;;;;;;;;;;4949284;28;20449;-73
2022/01/06 05:38:28;;;;;;;3.97;1.50;;;;;;;;;;4950438;28;20026;-72
2022/01/06 05:40:53;;;;;;;4.05;1.63;;;;;;;;;;4948072;28;20396;-71
2022/01/06 05:43:20;;;;;;;4.40;1.60;;;;;;;;;;4948967;28;20442;-72
2022/01/06 05:45:46;;;;;;;2.92;1.48;;;;;;;;;;4950265;28;20324;-72
2022/01/06 05:48:11;;;;;;;5.53;1.92;;;;;;;;;;4949345;28;20429;-73
2022/01/06 05:50:37;;;;;;;6.90;1.58;;;;;;;;;;4949465;28;20437;-72
2022/01/06 05:53:02;;;;;;;4.95;1.90;;;;;;;;;;4933531;28;20485;-72
2022/01/06 05:55:27;;;;;;;5.72;1.75;;;;;;;;;;4953116;28;20512;-72
2022/01/06 05:57:53;;;;;;;5.22;2.65;;;;;;;;;;4952807;28;20441;-72
2022/01/06 06:00:18;;;;;;;4.70;2.25;;;;;;;;;;4952769;28;20441;-72
2022/01/06 06:02:43;;;;;;;6.18;2.10;;;;;;;;;;4934992;28;20452;-72
2022/01/06 06:05:09;;;;;;;3.03;1.50;;;;;;;;;;4952582;28;20396;-72
2022/01/06 06:07:34;;;;;;;3.67;1.98;;;;;;;;;;4952440;28;20338;-73
2022/01/06 06:10:00;;;;;;;7.60;2.13;;;;;;;;;;4952348;28;20354;-72
2022/01/06 06:12:25;;;;;;;3.70;1.70;;;;;;;;;;4953982;28;20502;-72
2022/01/06 06:14:50;;;;;;;4.07;2.22;;;;;;;;;;4952610;28;20422;-73
2022/01/06 06:17:16;;;;;;;4.75;2.05;;;;;;;;;;4953123;28;20377;-72
2022/01/06 06:19:41;;;;;;;6.35;2.35;;;;;;;;;;4952492;28;20133;-72
2022/01/06 06:22:06;;;;;;;5.05;2.35;;;;;;;;;;4952482;28;20464;-72
2022/01/06 06:24:33;;;;;;;4.15;2.15;;;;;;;;;;4952325;28;20305;-72
2022/01/06 06:26:58;;;;;;;3.05;1.65;;;;;;;;;;4952516;28;20429;-72
2022/01/06 06:29:24;;;;;;;5.05;2.35;;;;;;;;;;4951947;28;20392;-72
2022/01/06 06:31:49;;;;;;;6.78;2.13;;;;;;;;;;4953547;28;20443;-72
2022/01/06 06:34:14;;;;;;;5.00;2.20;;;;;;;;;;4952682;28;20520;-72
2022/01/06 06:36:40;;;;;;;6.38;2.28;;;;;;;;;;4952017;28;20387;-72
2022/01/06 06:39:06;;;;;;;6.30;2.85;;;;;;;;;;4952436;28;20467;-72
2022/01/06 06:41:31;;;;;;;4.40;1.92;;;;;;;;;;4918197;28;20116;-72
2022/01/06 06:43:56;;;;;;;5.43;2.00;;;;;;;;;;4952071;28;20384;-72
2022/01/06 06:46:22;;;;;;;4.90;2.17;;;;;;;;;;4951661;28;20030;-71
2022/01/06 06:48:47;;;;;;;4.07;2.05;;;;;;;;;;4952002;28;20496;-72
2022/01/06 06:51:14;;;;;;;4.78;1.92;;;;;;;;;;4951707;28;20481;-72
2022/01/06 06:53:40;;;;;;;4.57;1.85;;;;;;;;;;4934677;28;20523;-72
2022/01/06 06:56:05;;;;;;;3.40;1.38;;;;;;;;;;4951435;28;20645;-72
2022/01/06 06:58:31;;;;;;;3.30;1.73;;;;;;;;;;4930977;28;20522;-72
2022/01/06 07:00:56;;;;;;;10.13;2.58;;;;;;;;;;4932037;28;20531;-72
2022/01/06 07:03:21;;;;;;;4.32;2.70;;;;;;;;;;4914927;28;20490;-72
2022/01/06 07:05:47;;;;;;;4.70;1.85;;;;;;;;;;4931743;28;20450;-72
2022/01/06 07:08:12;;;;;;;4.55;2.08;;;;;;;;;;4932446;28;20516;-72
2022/01/06 07:10:37;;;;;;;4.07;2.08;;;;;;;;;;4933022;28;20386;-72
2022/01/06 07:13:02;;;;;;;2.65;1.30;;;;;;;;;;4932784;28;20461;-72
2022/01/06 07:15:28;;;;;;;4.60;1.73;;;;;;;;;;4914663;28;20404;-72
2022/01/06 07:17:53;;;;;;;5.75;2.38;;;;;;;;;;4932477;28;20284;-72
2022/01/06 07:20:19;;;;;;;8.20;2.38;;;;;;;;;;4932516;28;20050;-72
2022/01/06 07:22:44;;;;;;;5.68;1.98;;;;;;;;;;4932048;28;20521;-72
2022/01/06 07:25:09;;;;;;;7.55;2.22;;;;;;;;;;4932017;28;20390;-72
2022/01/06 07:27:35;;;;;;;6.25;2.30;;;;;;;;;;4932072;28;20409;-72
2022/01/06 07:30:00;;;;;;;3.85;1.70;;;;;;;;;;4914362;28;20456;-72
2022/01/06 07:32:25;;;;;;;6.15;1.98;;;;;;;;;;4914477;28;20030;-72
2022/01/06 07:34:51;;;;;;;6.15;2.28;;;;;;;;;;4932322;28;20353;-72
2022/01/06 07:37:16;;;;;;;6.93;2.42;;;;;;;;;;4914080;28;20372;-72
2022/01/06 07:39:42;;;;;;;5.38;2.10;;;;;;;;;;4931376;28;20497;-72
2022/01/06 07:42:07;;;;;;;3.08;1.60;;;;;;;;;;4931427;28;20405;-72
2022/01/06 07:44:33;;;;;;;4.95;1.88;;;;;;;;;;4931503;28;20490;-72
2022/01/06 07:46:59;;;;;;;4.97;2.03;;;;;;;;;;4930991;28;20026;-72
2022/01/06 07:49:25;;;;;;;4.38;1.60;;;;;;;;;;4931995;28;20440;-72
2022/01/06 07:51:50;;;;;;;3.78;2.15;;;;;;;;;;4931456;28;20422;-71
2022/01/06 07:54:15;;;;;;;3.28;1.90;;;;;;;;;;4914481;28;20445;-72
2022/01/06 07:56:41;;;;;;;4.72;2.08;;;;;;;;;;4917054;28;20407;-71
2022/01/06 07:59:09;;;;;;;5.63;2.17;;;;;;;;;;4950521;28;20451;-72
2022/01/06 08:01:34;;;;;;;7.03;2.50;;;;;;;;;;4950225;28;20527;-72
2022/01/06 08:03:59;;;;;;;4.07;1.85;;;;;;;;;;4951121;28;20537;-72
2022/01/06 08:06:25;;;;;;;7.18;2.90;;;;;;;;;;4950269;28;20530;-72
2022/01/06 08:08:50;;;;;;;4.25;2.25;;;;;;;;;;4951346;28;20325;-72
2022/01/06 08:11:15;;;;;;;6.40;2.80;;;;;;;;;;4950089;28;20449;-72
2022/01/06 08:13:41;;;;;;;5.20;2.08;;;;;;;;;;4933159;28;20375;-72
2022/01/06 08:16:07;;;;;;;6.32;2.60;;;;;;;;;;4949406;28;20377;-72
2022/01/06 08:18:32;;;;;;;6.32;2.42;;;;;;;;;;4933143;28;20450;-72
2022/01/06 08:20:58;;;;;;;3.28;1.88;;;;;;;;;;4950555;28;20348;-72
2022/01/06 08:23:24;;;;;;;6.45;2.22;;;;;;;;;;4950607;28;20337;-72
2022/01/06 08:25:49;;;;;;;3.83;1.83;;;;;;;;;;4948459;28;20026;-72
2022/01/06 08:28:14;;;;;;;9.43;2.55;;;;;;;;;;4950131;28;20531;-72
2022/01/06 08:30:40;;;;;;;7.57;2.63;;;;;;;;;;4950194;28;20436;-73
2022/01/06 08:33:05;;;;;;;6.47;2.95;;;;;;;;;;4949729;28;20376;-72
2022/01/06 08:35:31;;;;;;;8.20;2.25;;;;;;;;;;4932512;28;20469;-72
2022/01/06 08:37:56;;;;;;;5.00;2.28;;;;;;;;;;4950244;28;20405;-73
2022/01/06 08:40:21;;;;;;;3.70;2.35;;;;;;;;;;4932347;28;20449;-71
2022/01/06 08:42:47;;;;;;;5.18;2.33;;;;;;;;;;4949898;28;20030;-73
2022/01/06 08:45:13;;;;;;;10.80;3.53;;;;;;;;;;4932019;28;20429;-72
2022/01/06 08:47:39;;;;;;;7.88;2.67;;;;;;;;;;4932341;28;20314;-72
2022/01/06 08:50:05;;;;;;;5.25;2.33;;;;;;;;;;4948214;28;20322;-72
2022/01/06 08:52:33;;;;;;;8.25;3.33;;;;;;;;;;4932383;28;20026;-72
2022/01/06 08:54:58;;;;;;;8.25;3.80;;;;;;;;;;4932068;28;20336;-72
2022/01/06 08:57:24;;;;;;;8.13;3.08;;;;;;;;;;4949633;28;20385;-72
2022/01/06 08:59:49;;;;;;;7.07;3.05;;;;;;;;;;4931944;28;20030;-73
2022/01/06 09:02:14;;;;;;;5.55;3.05;;;;;;;;;;4950115;28;20362;-72
2022/01/06 09:04:39;;;;;;;4.88;2.50;;;;;;;;;;4949376;28;20496;-72
2022/01/06 09:07:05;;;;;;;8.50;3.55;;;;;;;;;;4950128;28;20397;-72
2022/01/06 09:09:30;;;;;;;7.15;2.65;;;;;;;;;;4949206;28;20057;-72
2022/01/06 09:11:56;;;;;;;4.38;2.33;;;;;;;;;;4948196;28;20112;-72
2022/01/06 09:14:22;;;;;;;5.00;2.88;;;;;;;;;;4915381;28;20512;-73
2022/01/06 09:16:48;;;;;;;5.90;2.63;;;;;;;;;;4949274;28;20349;-73
2022/01/06 09:19:14;;;;;;;5.97;2.55;;;;;;;;;;4949375;28;20508;-72
2022/01/06 09:21:39;;;;;;;5.47;2.38;;;;;;;;;;4931845;28;20461;-73
2022/01/06 09:24:07;;;;;;;7.55;3.47;;;;;;;;;;4950264;28;20400;-72
2022/01/06 09:26:36;;;;;;;6.00;2.28;;;;;;;;;;4949271;28;20544;-72
2022/01/06 09:29:04;;;;;;;6.18;2.65;;;;;;;;;;4935721;28;20298;-73
2022/01/06 09:31:29;;;;;;;5.90;2.35;;;;;;;;;;4952979;28;20436;-73
2022/01/06 09:33:55;;;;;;;6.03;2.03;;;;;;;;;;4935868;28;20052;-73
2022/01/06 09:36:20;;;;;;;4.82;2.28;;;;;;;;;;4953274;28;20376;-73
2022/01/06 09:38:47;;;;;;;6.00;2.25;;;;;;;;;;4935505;28;20034;-73
2022/01/06 09:41:13;;;;;;;9.18;2.50;;;;;;;;;;4953254;28;20161;-72
2022/01/06 09:43:40;;;;;;;3.85;1.85;;;;;;;;;;4952404;28;20445;-72
2022/01/06 09:46:08;;;;;;;4.38;2.08;;;;;;;;;;4934438;28;20442;-72
2022/01/06 09:48:36;;;;;;;5.03;2.10;;;;;;;;;;4952699;28;20396;-72
2022/01/06 09:51:01;;;;;;;4.93;2.05;;;;;;;;;;4935443;28;20440;-72
2022/01/06 09:53:27;;;;;;;4.47;1.95;;;;;;;;;;4952796;28;20437;-72
2022/01/06 09:55:52;;;;;;;3.75;2.10;;;;;;;;;;4952983;28;20179;-72
2022/01/06 09:58:23;;;;;;;4.63;1.98;;;;;;;;;;4919255;28;20400;-72
2022/01/06 10:00:49;;;;;;;4.57;2.45;;;;;;;;;;4933463;28;20495;-72
2022/01/06 10:03:15;;;;;;;4.90;1.95;;;;;;;;;;4915450;28;20321;-72
2022/01/06 10:05:45;;;;;;;4.78;2.28;;;;;;;;;;4933254;28;20477;-73
2022/01/06 10:08:12;;;;;;;6.95;1.90;;;;;;;;;;4915679;28;20398;-72
2022/01/06 10:10:40;;;;;;;5.80;2.03;;;;;;;;;;4934750;28;20341;-72
2022/01/06 10:13:08;;;;;;;5.30;2.05;;;;;;;;;;4933495;28;20053;-73
2022/01/06 10:15:38;;;;;;;8.10;2.45;;;;;;;;;;4932884;28;20342;-72
2022/01/06 10:18:16;;;;;;;4.65;2.45;;;;;;;;;;4915730;28;20318;-72
2022/01/06 10:20:43;;;;;;;4.27;1.90;;;;;;;;;;4915469;28;20393;-72
2022/01/06 10:23:13;;;;;;;6.07;2.45;;;;;;;;;;4915317;28;20430;-72
2022/01/06 10:25:46;;;;;;;5.72;1.90;;;;;;;;;;4916345;28;20559;-72
2022/01/06 10:28:19;;;;;;;5.32;2.28;;;;;;;;;;4933131;28;20476;-72
2022/01/06 10:30:48;;;;;;;3.05;1.63;;;;;;;;;;4932977;28;20437;-72
2022/01/06 10:33:17;;;;;;;;;;;;;;;;;;4916057;28;20452;-72
2022/01/06 10:35:42;;;;;;;8.18;2.30;;;;;;;;;;4932861;28;19918;-72
2022/01/06 10:38:07;;;;;;;5.38;2.40;;;;;;;;;;4914787;28;20476;-72
2022/01/06 10:40:33;;;;;;;3.35;1.83;;;;;;;;;;4933526;28;20422;-72
2022/01/06 10:42:58;;;;;;;5.70;2.25;;;;;;;;;;4932441;28;20315;-72
2022/01/06 10:45:26;;;;;;;4.75;2.40;;;;;;;;;;4932237;28;20476;-72
2022/01/06 10:47:54;;;;;;;4.95;2.30;;;;;;;;;;4915120;28;20469;-72
2022/01/06 10:50:28;;;;;;;5.22;2.25;;;;;;;;;;4932770;28;20023;-72
2022/01/06 10:52:54;;;;;;;5.03;2.33;;;;;;;;;;4915849;28;20183;-73
2022/01/06 10:55:25;;;;;;;5.57;2.13;;;;;;;;;;4933513;28;20414;-72
2022/01/06 10:58:01;;;;;;;3.97;1.75;;;;;;;;;;4940589;28;20357;-72
2022/01/06 11:00:37;;;;;;;4.38;2.10;;;;;;;;;;4934274;28;20361;-72
2022/01/06 11:03:19;;;;;;;3.72;2.00;;;;;;;;;;4952139;28;20338;-72
2022/01/06 11:05:52;;;;;;;6.57;1.88;;;;;;;;;;4952381;28;20436;-72
2022/01/06 11:08:26;;;;;;;3.97;2.08;;;;;;;;;;4951389;28;20422;-72
2022/01/06 11:13:32;;;;;;;3.95;1.88;;;;;;;;;;4951526;28;20404;-72
2022/01/06 11:15:58;;;;;;;4.63;1.60;;;;;;;;;;4917304;28;20416;-72
2022/01/06 11:18:23;;;;;;;7.15;3.10;;;;;;;;;;4951355;28;20386;-72
2022/01/06 11:20:49;;;;;;;5.53;2.30;;;;;;;;;;4934097;28;20409;-73
2022/01/06 11:23:24;;;;;;;5.10;2.03;;;;;;;;;;4933582;28;20056;-72
2022/01/06 11:26:07;;;;;;;9.43;2.25;;;;;;;;;;4933152;28;20429;-72
2022/01/06 11:28:33;;;;;;;3.88;1.70;;;;;;;;;;4933198;28;20368;-71
2022/01/06 11:31:12;;;;;;;6.68;2.95;;;;;;;;;;4933508;28;20492;-72
2022/01/06 11:33:40;;;;;;;6.93;2.38;;;;;;;;;;4933279;28;20457;-74
2022/01/06 11:36:05;;;;;;;10.38;3.45;;;;;;;;;;4933582;28;20389;-72
2022/01/06 11:38:31;;;;;;;11.00;2.70;;;;;;;;;;4949660;28;20404;-72
2022/01/06 11:41:10;;;;;;;7.82;2.65;;;;;;;;;;4952099;28;20455;-72
2022/01/06 11:43:36;;;;;;;;;;;;;;;;;;4970152;28;20021;-72
2022/01/06 11:46:02;;;;;;;10.10;2.78;;;;;;;;;;4968195;28;20299;-71
2022/01/06 11:48:27;;;;;;;5.40;2.65;;;;;;;;;;4970219;28;20423;-73
2022/01/06 11:50:53;;;;;;;5.35;2.55;;;;;;;;;;4952534;28;20449;-73
2022/01/06 11:53:18;;;;;;;12.68;3.40;;;;;;;;;;4970027;28;20056;-73
2022/01/06 11:55:45;;;;;;;9.02;2.65;;;;;;;;;;4968984;28;20537;-74
2022/01/06 11:58:21;;;;;;;5.25;1.77;;;;;;;;;;4937382;28;20393;-74
2022/01/06 12:01:05;;;;;;;6.78;2.33;;;;;;;;;;4933116;28;20365;-73
2022/01/06 12:03:46;;;;;;;6.00;2.67;;;;;;;;;;4930536;28;20314;-73
2022/01/06 12:06:29;;;;;;;9.80;3.38;;;;;;;;;;4948266;28;20396;-73
2022/01/06 12:08:55;;;;;;;6.65;2.85;;;;;;;;;;4948165;28;20307;-73
2022/01/06 12:11:23;;;;;;;9.63;2.67;;;;;;;;;;4949187;28;20332;-73
2022/01/06 12:13:50;;;;;;;8.02;2.42;;;;;;;;;;4929985;28;20433;-73
2022/01/06 12:16:25;;;;;;;10.25;2.40;;;;;;;;;;4931542;28;20048;-73
2022/01/06 12:18:50;;;;;;;9.30;3.15;;;;;;;;;;4950236;28;20457;-72
2022/01/06 12:21:15;;;;;;;6.95;2.35;;;;;;;;;;4949819;28;20457;-73
2022/01/06 12:23:41;;;;;;;6.55;2.67;;;;;;;;;;4916710;28;20038;-73
2022/01/06 12:26:11;;;;;;;7.60;2.75;;;;;;;;;;4948788;28;20330;-73
2022/01/06 12:28:50;;;;;;;4.85;2.22;;;;;;;;;;4950263;28;20339;-73
2022/01/06 12:31:26;;;;;;;5.75;3.10;;;;;;;;;;4932961;28;20499;-73
2022/01/06 12:33:58;;;;;;;6.82;2.53;;;;;;;;;;4950401;28;20504;-73
2022/01/06 12:36:24;;;;;;;6.32;3.13;;;;;;;;;;4950103;28;20030;-72
2022/01/06 12:38:49;;;;;;;6.65;2.60;;;;;;;;;;4931835;28;20385;-72
2022/01/06 12:41:17;;;;;;;5.38;2.60;;;;;;;;;;4916358;28;20334;-73
2022/01/06 12:43:43;;;;;;;12.05;3.22;;;;;;;;;;4932037;28;20380;-73
2022/01/06 12:46:10;;;;;;;5.47;2.50;;;;;;;;;;4950699;28;20354;-73
2022/01/06 12:48:38;;;;;;;3.30;2.08;;;;;;;;;;4950085;28;20368;-73
2022/01/06 12:51:04;;;;;;;4.90;1.63;;;;;;;;;;4932040;28;20022;-73
2022/01/06 12:53:37;;;;;;;5.70;1.90;;;;;;;;;;4932181;28;20461;-72
2022/01/06 12:56:03;;;;;;;7.13;2.80;;;;;;;;;;4932088;28;20666;-73
2022/01/06 12:58:33;;;;;;;4.65;2.08;;;;;;;;;;4967178;28;20436;-73
2022/01/06 13:01:02;;;;;;;;;;;;;;;;;;4968023;28;20030;-73
2022/01/06 13:03:34;;;;;;;5.85;2.03;;;;;;;;;;4969850;28;20355;-73
2022/01/06 13:06:01;;;;;;;6.63;2.13;;;;;;;;;;4969939;28;20491;-74
2022/01/06 13:08:29;;;;;;;7.95;2.08;;;;;;;;;;4967342;28;20492;-73
2022/01/06 13:11:05;;;;;;;4.85;2.38;;;;;;;;;;4967231;28;20030;-73
2022/01/06 13:13:31;;;;;;;5.63;1.75;;;;;;;;;;4970668;28;20378;-72
2022/01/06 13:15:56;;;;;;;5.47;1.90;;;;;;;;;;4968151;28;20383;-72
2022/01/06 13:18:26;;;;;;;5.15;2.67;;;;;;;;;;4969909;28;20030;-73
2022/01/06 13:20:59;;;;;;;4.65;1.98;;;;;;;;;;4970176;28;20025;-72
2022/01/06 13:26:07;;;;;;;5.68;2.40;;;;;;;;;;4952131;28;20325;-73
2022/01/06 13:28:33;;;;;;;3.85;2.15;;;;;;;;;;4968012;28;20405;-72
2022/01/06 13:30:58;;;;;;;6.13;3.22;;;;;;;;;;4968846;28;20441;-73
2022/01/06 13:33:27;;;;;;;2.63;1.38;;;;;;;;;;4968533;28;20532;-72
2022/01/06 13:35:56;;;;;;;4.63;2.55;;;;;;;;;;4951261;28;20026;-72
2022/01/06 13:38:26;;;;;;;4.50;1.67;;;;;;;;;;4968619;28;20025;-72
2022/01/06 13:41:01;;;;;;;4.88;2.22;;;;;;;;;;4966898;28;20436;-72
2022/01/06 13:43:29;;;;;;;3.85;2.00;;;;;;;;;;4968411;28;20025;-73
2022/01/06 13:46:09;;;;;;;4.80;2.08;;;;;;;;;;4969563;28;20454;-72
2022/01/06 13:48:44;;;;;;;7.35;2.53;;;;;;;;;;4967723;28;20127;-72
2022/01/06 13:51:14;;;;;;;5.72;2.35;;;;;;;;;;4950744;28;20503;-72
2022/01/06 13:53:47;;;;;;;4.82;1.70;;;;;;;;;;4975331;28;20067;-72
2022/01/06 13:56:12;;;;;;;4.90;1.92;;;;;;;;;;4987865;28;20056;-72
2022/01/06 13:58:43;;;;;;;4.10;1.98;;;;;;;;;;4969902;28;20041;-72
2022/01/06 14:01:11;;;;;;;4.97;1.70;;;;;;;;;;4986712;28;20025;-72
2022/01/06 14:03:37;;;;;;;3.80;1.90;;;;;;;;;;4987470;28;20032;-72
2022/01/06 14:06:05;;;;;;;11.70;4.38;;;;;;;;;;4986479;28;20440;-72
2022/01/06 14:08:30;;;;;;;13.13;4.75;;;;;;;;;;4986747;28;20490;-72
2022/01/06 14:10:56;;;;;;;13.05;5.45;;;;;;;;;;4987782;28;20377;-72
2022/01/06 14:13:22;;;;;;;9.40;4.30;;;;;;;;;;4987543;28;20437;-71
2022/01/06 14:15:47;;;;;;;9.77;4.50;;;;;;;;;;4974579;28;20360;-71
2022/01/06 14:18:14;;;;;;;8.18;3.30;;;;;;;;;;4990055;28;20320;-72
2022/01/06 14:20:39;;;;;;;8.95;3.40;;;;;;;;;;4992010;28;20392;-71
2022/01/06 14:23:05;;;;;;;10.50;4.20;;;;;;;;;;4990021;28;20332;-71
2022/01/06 14:25:30;;;;;;;9.68;4.15;;;;;;;;;;4990445;28;20451;-71
2022/01/06 14:27:56;;;;;;;8.07;3.50;;;;;;;;;;4990758;28;20425;-71
2022/01/06 14:30:23;;;;;;;10.60;4.15;;;;;;;;;;4991802;28;20324;-72
2022/01/06 14:32:49;;;;;;;6.95;3.00;;;;;;;;;;4991283;28;20432;-71
2022/01/06 14:35:14;;;;;;;7.82;3.28;;;;;;;;;;4990200;28;20340;-71
2022/01/06 14:37:40;;;;;;;7.70;3.22;;;;;;;;;;4991438;28;20486;-71
2022/01/06 14:40:05;;;;;;;8.70;3.17;;;;;;;;;;4973351;28;20414;-71
2022/01/06 14:42:31;;;;;;;12.25;3.10;;;;;;;;;;4992163;28;20297;-71
2022/01/06 14:44:56;;;;;;;8.60;3.15;;;;;;;;;;4991114;28;20614;-71
2022/01/06 14:47:21;;;;;;;8.77;3.53;;;;;;;;;;4991194;28;20132;-71
2022/01/06 14:49:47;;;;;;;10.75;3.55;;;;;;;;;;4990223;28;20378;-71
2022/01/06 14:52:12;;;;;;;9.13;3.15;;;;;;;;;;4990996;28;20025;-71